Portada
METAR-TAF:

METAR-TAF

Aeroports :

Horn Island, Austràlia

latitud: 10-35-11S, longitud: 142-07-24E, altitud: 13 m

Observació

L'informe es va fer fa 26 minuts, a les 16:30 UTC
Vent 8 kt del Sud-Est
Temperatura 26°C
Humitat 89%
Pressió 1009 hPa
Visibilitat 10 km o més
Núvols disperses a una alçada de 1200 ft

METAR: YHID 201630Z AUTO 13008KT 9999 // SCT012 26/24 Q1009

Hora: 02:56 (16:56 UTC)

Pronòstic

L'informe es va fer fa 6 hores i 8 minuts, a les 10:48 UTC
Pronòstic vàlid del 20 a les 12 UTC al 21 a les 12 UTC
Vent 12 kt del Sud-Est
Visibilitat 10 km o més
Núvols disperses a una alçada de 1600 ft

TAF: YHID 201048Z 2012/2112 13012KT 9999 SCT016

Observacions i pronòstics meteorològics de més de 4000 aeroports (METAR i TAF).

Les estacions disponibles són els punts grocs i vermells al mapa.

Posi el ratolí al punt desitjat per veure el nom de l'estació.

Feu clic per veure les observacions i els pronòstics meteorològics.

Per canviar el mapa: feu clic els botons verds amb una creu de color negre per apropar; al botó verd amb un guió per allunyar la imatge; o en les fletxes verdes per a mapes adjacents.


METAR-TAF: